Weather History for Stevens Point, WI

Change the Weather History Date:

Monday, November 11, 2013

  Actual Average Record
Temperature  
Mean Temperature 28 °F -  
Max Temperature 37 °F 42 °F 66 °F (1964)
Min Temperature 20 °F 26 °F 1 °F (1986)
Degree Days  
Heating Degree Days 36    
Moisture  
Dew Point 16 °F    
Average Humidity 64    
Maximum Humidity 97    
Minimum Humidity 40    
Precipitation  
Precipitation 0.00 in - - ()
Sea Level Pressure  
Sea Level Pressure 30.27 in    
Wind  
Wind Speed 9 mph (NW)    
Max Wind Speed 18 mph    
Max Gust Speed 28 mph    
Visibility 10 miles    
Events Rain    
Averages and records for this station are not official NWS values.
T = Trace of Precipitation, MM = Missing Value Source: NWS Daily Summary

Daily Weather History Graph

Daily Weather History Graph

Search for Another Location

Airport:

Trip Planner

Search our weather history database for the weather conditions in past years. The results will help you decide how hot, cold, wet, or windy it might be!

Date:

Astronomy

Nov. 11, 2013 Rise Set
Actual Time 6:49 AM CST 4:34 PM CST
Civil Twilight 6:18 AM CST 5:05 PM CST
Nautical Twilight 5:43 AM CST 5:40 PM CST
Astronomical Twilight 5:09 AM CST 6:14 PM CST
Moon 1:27 PM CST (11/11) 12:20 AM CST (11/11)
Length of Visible Light 10h 47m
Length of Day
9h 44m
Waxing Gibbous, 66% of the Moon is Illuminated
Nov 11
Waxing Gibbous
Nov 17
Full
Nov 25
Last Quarter
Dec 2
New
Dec 9
First Quarter

Hourly Weather History & Observations

Time (CST) Temp. Windchill Dew Point Humidity Pressure Visibility Wind Dir Wind Speed Gust Speed Precip Events Conditions
12:15 AM 35.6 °F 32.8 °F 30.0 °F 80% 30.06 in 10.0 mi SSW 3.5 mph - N/A   Overcast
12:35 AM 36.5 °F 32.7 °F 29.1 °F 75% 30.06 in 10.0 mi SW 4.6 mph - N/A   Overcast
12:55 AM 37.4 °F 32.8 °F 28.4 °F 70% 30.05 in 10.0 mi SW 5.8 mph - N/A   Overcast
1:15 AM 37.6 °F 32.3 °F 27.9 °F 68% 30.04 in 10.0 mi WSW 6.9 mph - N/A   Overcast
1:35 AM 37.4 °F 31.4 °F 28.0 °F 69% 30.04 in 10.0 mi WSW 8.1 mph - N/A Rain Light Rain
1:55 AM 36.7 °F 30.5 °F 28.8 °F 73% 30.06 in 10.0 mi West 8.1 mph - N/A Rain Light Rain
2:15 AM 36.5 °F 31.8 °F 28.8 °F 74% 30.04 in 10.0 mi West 5.8 mph - N/A Rain Light Rain
2:35 AM 36.1 °F 31.4 °F 29.3 °F 76% 30.04 in 10.0 mi WSW 5.8 mph - N/A   Drizzle
2:55 AM 36.3 °F 28.9 °F 29.5 °F 76% 30.04 in 10.0 mi West 10.4 mph 17.3 mph N/A Rain Light Rain
3:15 AM 35.8 °F 28.3 °F 30.2 °F 80% 30.04 in 10.0 mi West 10.4 mph 19.6 mph N/A Rain Rain
3:35 AM 35.1 °F 29.3 °F 30.9 °F 85% 30.04 in 10.0 mi West 6.9 mph - N/A Rain Light Rain
3:55 AM 34.7 °F 29.6 °F 31.1 °F 87% 30.04 in 10.0 mi WNW 5.8 mph - N/A Rain Light Rain
4:15 AM 34.3 °F 28.4 °F 31.1 °F 88% 30.05 in 10.0 mi NW 6.9 mph - N/A Rain Light Rain
4:35 AM 33.8 °F 27.7 °F 31.1 °F 90% 30.05 in 10.0 mi WNW 6.9 mph - N/A Rain Light Rain
4:55 AM 32.9 °F 27.5 °F 31.3 °F 94% 30.06 in 7.0 mi WNW 5.8 mph - N/A Rain Light Rain
5:15 AM 32.9 °F 28.5 °F 31.5 °F 94% 30.06 in 7.0 mi WNW 4.6 mph - N/A Rain Light Rain
5:35 AM 32.4 °F 25.3 °F 31.6 °F 97% 30.07 in 5.0 mi WNW 8.1 mph - N/A Rain Light Rain
5:55 AM 32.2 °F 25.8 °F 31.1 °F 96% 30.08 in 5.0 mi WNW 6.9 mph - N/A Rain Rain
6:15 AM 30.7 °F 21.4 °F 28.6 °F 92% 30.10 in 2.5 mi NNW 11.5 mph 21.9 mph N/A Rain Light Freezing Rain
6:35 AM 29.3 °F 19.6 °F 27.5 °F 93% 30.12 in 3.0 mi NNW 11.5 mph - N/A   Overcast
6:55 AM 28.9 °F 19.2 °F 26.6 °F 91% 30.13 in 7.0 mi North 11.5 mph - N/A   Overcast
7:15 AM 28.4 °F 18.5 °F 25.2 °F 88% 30.14 in 7.0 mi North 11.5 mph - N/A   Overcast
7:35 AM 27.3 °F 15.2 °F 22.8 °F 83% 30.16 in 10.0 mi North 16.1 mph 21.9 mph N/A   Overcast
7:55 AM 26.1 °F 14.0 °F 19.9 °F 78% 30.17 in 10.0 mi North 15.0 mph 19.6 mph N/A   Overcast
8:34 AM 24.8 °F 11.1 °F 14.0 °F 64% 30.20 in 10.0 mi North 18.4 mph 26.5 mph N/A   Overcast
8:35 AM 24.6 °F 11.3 °F 13.8 °F 64% 30.20 in 10.0 mi North 17.3 mph 26.5 mph N/A   Overcast
8:55 AM 24.4 °F 12.4 °F 13.3 °F 63% 30.21 in 10.0 mi North 13.8 mph 20.7 mph N/A   Overcast
9:15 AM 24.4 °F 12.4 °F 13.5 °F 63% 30.22 in 10.0 mi NNW 13.8 mph 20.7 mph N/A   Overcast
9:35 AM 24.4 °F 12.4 °F 12.4 °F 60% 30.24 in 10.0 mi NNW 13.8 mph 25.3 mph N/A   Overcast
9:55 AM 24.3 °F 13.3 °F 13.5 °F 63% 30.25 in 10.0 mi NNW 11.5 mph 19.6 mph N/A   Mostly Cloudy
10:15 AM 23.9 °F 10.3 °F 10.6 °F 57% 30.25 in 10.0 mi North 17.3 mph 23.0 mph N/A   Scattered Clouds
10:35 AM 23.9 °F 11.2 °F 10.4 °F 56% 30.26 in 10.0 mi North 15.0 mph 25.3 mph N/A   Clear
10:55 AM 24.3 °F 12.7 °F 11.3 °F 58% 30.26 in 10.0 mi NNW 12.7 mph 18.4 mph N/A   Scattered Clouds
11:15 AM 24.8 °F 12.9 °F 11.1 °F 56% 30.26 in 10.0 mi NNW 13.8 mph 23.0 mph N/A   Scattered Clouds
11:35 AM 24.6 °F 12.7 °F 10.2 °F 54% 30.27 in 10.0 mi North 13.8 mph 24.2 mph N/A   Clear
11:55 AM 24.8 °F 13.4 °F 9.5 °F 52% 30.27 in 10.0 mi NNW 12.7 mph 21.9 mph N/A   Clear
12:15 PM 25.7 °F 13.1 °F 9.5 °F 50% 30.27 in 10.0 mi North 16.1 mph 21.9 mph N/A   Scattered Clouds
12:35 PM 25.7 °F 14.6 °F 9.9 °F 51% 30.28 in 10.0 mi NW 12.7 mph 19.6 mph N/A   Scattered Clouds
12:55 PM 25.5 °F 13.8 °F 10.2 °F 52% 30.29 in 10.0 mi North 13.8 mph 21.9 mph N/A   Scattered Clouds
1:15 PM 25.3 °F 12.6 °F 9.0 °F 50% 30.30 in 10.0 mi NNW 16.1 mph 21.9 mph N/A   Mostly Cloudy
1:35 PM 23.9 °F 11.7 °F 7.3 °F 49% 30.30 in 10.0 mi NNW 13.8 mph 20.7 mph N/A   Scattered Clouds
1:55 PM 25.5 °F 13.3 °F 8.1 °F 48% 30.30 in 10.0 mi North 15.0 mph 19.6 mph N/A   Scattered Clouds
2:15 PM 26.1 °F 13.1 °F 7.7 °F 46% 30.30 in 10.0 mi NNW 17.3 mph 24.2 mph N/A   Scattered Clouds
2:35 PM 26.6 °F 14.7 °F 6.3 °F 42% 30.31 in 10.0 mi North 15.0 mph 27.6 mph N/A   Scattered Clouds
2:55 PM 27.0 °F 16.7 °F 6.1 °F 41% 30.32 in 10.0 mi NNW 11.5 mph 24.2 mph N/A   Scattered Clouds
3:15 PM 26.6 °F 15.7 °F 6.3 °F 42% 30.33 in 10.0 mi NNW 12.7 mph 20.7 mph N/A   Scattered Clouds
3:35 PM 26.4 °F 14.0 °F 4.8 °F 40% 30.33 in 10.0 mi NNW 16.1 mph 20.7 mph N/A   Scattered Clouds
3:55 PM 25.7 °F 13.1 °F 5.5 °F 42% 30.35 in 10.0 mi NNW 16.1 mph 20.7 mph N/A   Scattered Clouds
4:15 PM 25.5 °F 13.3 °F 5.2 °F 42% 30.37 in 10.0 mi North 15.0 mph 23.0 mph N/A   Mostly Cloudy
4:35 PM 25.2 °F 18.3 °F 5.9 °F 44% 30.37 in 10.0 mi NNW 5.8 mph - N/A   Overcast
4:55 PM 24.6 °F 13.8 °F 6.3 °F 46% 30.38 in 10.0 mi North 11.5 mph 17.3 mph N/A   Overcast
5:15 PM 23.9 °F 14.2 °F 6.8 °F 48% 30.40 in 10.0 mi North 9.2 mph - N/A   Overcast
5:35 PM 23.5 °F 16.4 °F 7.0 °F 49% 30.41 in 10.0 mi NNW 5.8 mph - N/A   Overcast
5:55 PM 23.5 °F 14.5 °F 5.9 °F 47% 30.42 in 10.0 mi NNW 8.1 mph 17.3 mph N/A   Mostly Cloudy
6:15 PM 23.5 °F 14.5 °F 6.1 °F 47% 30.42 in 10.0 mi NNW 8.1 mph - N/A   Overcast
6:35 PM 23.9 °F 15.8 °F 6.8 °F 48% 30.44 in 10.0 mi NNW 6.9 mph - N/A   Overcast
6:55 PM 23.9 °F 12.9 °F 7.5 °F 50% 30.45 in 10.0 mi North 11.5 mph 17.3 mph N/A   Overcast
7:15 PM 23.4 °F 11.6 °F 7.7 °F 51% 30.45 in 10.0 mi North 12.7 mph 18.4 mph N/A   Mostly Cloudy
7:35 PM 23.0 °F 13.1 °F 8.1 °F 53% 30.46 in 10.0 mi NNW 9.2 mph 17.3 mph N/A   Scattered Clouds
7:55 PM 22.6 °F 12.6 °F 8.6 °F 55% 30.46 in 10.0 mi NNW 9.2 mph 16.1 mph N/A   Scattered Clouds
8:15 PM 22.1 °F 11.3 °F 9.1 °F 58% 30.47 in 10.0 mi NNW 10.4 mph 18.4 mph N/A   Clear
8:35 PM 21.9 °F 12.5 °F 9.5 °F 59% 30.48 in 10.0 mi NNW 8.1 mph - N/A   Clear
8:55 PM 21.6 °F 14.0 °F 9.7 °F 60% 30.49 in 10.0 mi NNW 5.8 mph - N/A   Clear
9:15 PM 21.2 °F 13.6 °F 9.7 °F 61% 30.50 in 10.0 mi NNW 5.8 mph - N/A   Clear
9:35 PM 20.8 °F 12.1 °F 9.9 °F 63% 30.51 in 10.0 mi NW 6.9 mph - N/A   Clear
9:55 PM 20.7 °F 14.2 °F 10.0 °F 64% 30.52 in 10.0 mi NW 4.6 mph - N/A   Clear
10:15 PM 20.3 °F 12.5 °F 10.0 °F 65% 30.53 in 10.0 mi NNW 5.8 mph - N/A   Clear
10:35 PM 20.3 °F 12.5 °F 10.2 °F 65% 30.54 in 10.0 mi NW 5.8 mph - N/A   Clear
10:55 PM 20.3 °F 12.5 °F 10.4 °F 66% 30.54 in 10.0 mi NW 5.8 mph - N/A   Scattered Clouds
11:15 PM 21.0 °F 14.6 °F 10.9 °F 65% 30.55 in 10.0 mi NW 4.6 mph - N/A   Mostly Cloudy
11:35 PM 21.2 °F 16.4 °F 11.1 °F 65% 30.55 in 10.0 mi WNW 3.5 mph - N/A   Overcast
11:55 PM 20.7 °F 13.0 °F 10.8 °F 66% 30.55 in 10.0 mi NW 5.8 mph - N/A   Overcast